Colp, Illinois
Current Conditions -  °F | °C
As of 4:48 PM on Friday 28 Nov 2014 (Local Time) from KMWA Reporting Station
Scattered Clouds Scattered Clouds  
Wind Chill: 39°   Ceiling: Unl
Heat Index: 45°   Visibility: 20mi
Dew Point: 30°   Wind: 12mph
Humidity: 57%   Direction: 180°S
Pressure: 30.06"   Gusts: NA
Location:  37.81°N, 89.08°W
Report Text: KMWA 282248Z 18010KT 20SM SCT200 07/M01 A3006
Loading
Personal Weather Stations






























Interactive Weather Map New forecast layout! Learn more

10-Day Weather Forecast

Advertisements
Track Severe Weather on mobile